Duck, West Virginia
Current Conditions -  °F | °C
As of 7:54 PM on Saturday 22 Nov 2014 (Local Time) from KCRW Reporting Station
Few Clouds Few Clouds  
Wind Chill: 44°   Ceiling: Unl
Heat Index: 47°   Visibility: 10mi
Dew Point: 25°   Wind: 6mph
Humidity: 42%   Direction: 170°S
Pressure: 30.16"   Gusts: NA
Location:  38.58°N, 80.94°W
Report Text: KCRW 230054Z 17005KT 10SM FEW100 08/M04 A3016 RMK AO2 SLP220 T00831039
Loading
Personal Weather Stations






























Interactive Weather Map New forecast layout! Learn more

10-Day Weather Forecast

Advertisements
Track Severe Weather on mobile